デンパサール の空港の天気 - METARとTAF

デンパサール国際空港 ( WADD / DPS ) - インドネシア バリ島デンパサール
飛行場実況気象(Metar)
観測時間06/18 07:30 WITA (06/17 23:30 UTC)
風向・風速不定 1m/s
視程10km以上
天気現象
少しの雲 雲底高度 520m
気温24℃
湿度89%
気圧1013hPa
METARWADD 172330Z VRB02KT 9999 FEW017 24/22 Q1013 NOSIG
過去の天気等 Google飛行場航空写真 Wunderground天気予報

過去48時間のMETAR

飛行場予報(TAF)
発表時間: 6/18 07:00 WITA (6/17 23:00 UTC)
予報対象時間: 18日8時 WITA ~ 19日8時 WITA
風向・風速東南東 7m/s
視程10km以上
全天の4割程度の雲 雲底高度 520m
19日4時 WITA ~ 19日8時 WITA に一時的に
風向・風速不定 3m/s
TAF WADD 172300Z 1800/1900 11013KT 9999 SCT017
TEMPO 1820/1900 VRB05KT